createdAt,value
2022-10-26T00:01:10.072Z,11.00
2022-10-26T00:03:39.974Z,11.00
2022-10-26T00:06:10.930Z,11.00
2022-10-26T00:08:39.676Z,11.00
2022-10-26T00:11:10.293Z,11.00
2022-10-26T00:13:38.564Z,11.00
2022-10-26T00:16:09.948Z,11.00
2022-10-26T00:18:38.188Z,11.00
2022-10-26T00:21:07.417Z,11.00
2022-10-26T00:23:35.563Z,11.00
2022-10-26T00:26:05.016Z,11.00
2022-10-26T00:28:34.707Z,11.00
2022-10-26T00:31:03.873Z,11.00
2022-10-26T00:33:32.737Z,11.00
2022-10-26T00:36:00.901Z,11.00
2022-10-26T00:38:29.222Z,10.90
2022-10-26T00:43:40.008Z,10.70
2022-10-26T00:46:12.980Z,10.70
2022-10-26T00:48:45.649Z,10.60
2022-10-26T00:51:19.246Z,10.50
2022-10-26T00:53:48.103Z,10.40
2022-10-26T00:56:17.143Z,10.40
2022-10-26T00:58:47.363Z,10.40
2022-10-26T01:01:15.611Z,10.30
2022-10-26T01:03:44.854Z,10.30
2022-10-26T01:06:13.893Z,10.30
2022-10-26T01:08:44.363Z,10.30
2022-10-26T01:11:13.249Z,10.20
2022-10-26T01:13:43.180Z,10.20
2022-10-26T01:16:28.595Z,10.20
2022-10-26T01:19:07.485Z,10.20
2022-10-26T01:21:46.455Z,10.20
2022-10-26T01:24:36.526Z,10.20
2022-10-26T01:27:18.206Z,10.20
2022-10-26T01:30:00.560Z,10.20
2022-10-26T01:32:33.980Z,10.20
2022-10-26T01:35:09.416Z,10.20
2022-10-26T01:37:42.807Z,10.20
2022-10-26T01:40:15.594Z,10.20
2022-10-26T01:42:48.677Z,10.20
2022-10-26T01:45:17.625Z,10.20
2022-10-26T01:47:49.086Z,10.20
2022-10-26T01:50:18.797Z,10.20
2022-10-26T01:52:49.987Z,10.10
2022-10-26T01:55:41.854Z,10.10
2022-10-26T01:58:24.879Z,10.10
2022-10-26T02:01:02.868Z,10.10
2022-10-26T02:03:42.602Z,10.10
2022-10-26T02:06:20.420Z,10.10
2022-10-26T02:08:59.553Z,10.10
2022-10-26T02:11:38.381Z,10.10
2022-10-26T02:16:56.320Z,10.10
2022-10-26T02:19:35.079Z,10.00
2022-10-26T02:22:10.964Z,10.00
2022-10-26T02:24:40.953Z,10.00
2022-10-26T02:27:12.945Z,10.00
2022-10-26T02:29:42.491Z,10.00
2022-10-26T02:32:12.049Z,10.00
2022-10-26T02:34:47.249Z,10.00
2022-10-26T02:37:19.474Z,9.90
2022-10-26T02:39:49.726Z,9.90
2022-10-26T02:42:19.673Z,9.90
2022-10-26T02:44:52.647Z,9.90
2022-10-26T02:47:22.459Z,9.90
2022-10-26T02:49:52.269Z,9.90
2022-10-26T02:52:28.984Z,9.90
2022-10-26T02:55:03.636Z,9.80
2022-10-26T02:57:39.816Z,9.80
2022-10-26T03:02:39.390Z,9.80
2022-10-26T03:05:15.762Z,9.80
2022-10-26T03:07:43.878Z,9.80
2022-10-26T03:10:12.607Z,9.70
2022-10-26T03:12:40.862Z,9.70
2022-10-26T03:15:09.906Z,9.70
2022-10-26T03:17:38.030Z,9.70
2022-10-26T03:20:07.266Z,9.70
2022-10-26T03:22:36.886Z,9.60
2022-10-26T03:25:05.603Z,9.60
2022-10-26T03:27:35.319Z,9.60
2022-10-26T03:30:03.430Z,9.50
2022-10-26T03:32:31.457Z,9.50
2022-10-26T03:34:59.690Z,9.50
2022-10-26T03:37:27.843Z,9.50
2022-10-26T03:39:57.254Z,9.50
2022-10-26T03:42:25.638Z,9.50
2022-10-26T03:44:53.727Z,9.50
2022-10-26T03:47:21.772Z,9.50
2022-10-26T03:49:50.018Z,9.50
2022-10-26T03:52:18.130Z,9.50
2022-10-26T03:54:46.198Z,9.50
2022-10-26T03:57:15.899Z,9.40
2022-10-26T03:59:43.969Z,9.40
2022-10-26T04:02:14.187Z,9.40
2022-10-26T04:04:42.544Z,9.40
2022-10-26T04:07:10.677Z,9.40
2022-10-26T04:09:38.785Z,9.40
2022-10-26T04:12:07.725Z,9.40
2022-10-26T04:14:37.205Z,9.40
2022-10-26T04:17:05.282Z,9.40
2022-10-26T04:19:33.682Z,9.40
2022-10-26T04:22:01.774Z,9.40
2022-10-26T04:24:29.877Z,9.40
2022-10-26T04:26:58.258Z,9.40
2022-10-26T04:29:26.361Z,9.40
2022-10-26T04:31:55.869Z,9.30
2022-10-26T04:34:24.350Z,9.40
2022-10-26T04:36:52.408Z,9.40
2022-10-26T04:39:20.517Z,9.30
2022-10-26T04:41:48.818Z,9.30
2022-10-26T04:44:17.270Z,9.30
2022-10-26T04:46:45.370Z,9.30
2022-10-26T04:49:15.145Z,9.30
2022-10-26T04:51:43.218Z,9.30
2022-10-26T04:54:11.543Z,9.30
2022-10-26T04:56:40.016Z,9.30
2022-10-26T04:59:08.174Z,9.20
2022-10-26T05:01:36.417Z,9.30
2022-10-26T05:04:04.813Z,9.20
2022-10-26T05:06:34.294Z,9.20
2022-10-26T05:09:03.548Z,9.20
2022-10-26T05:11:31.757Z,9.20
2022-10-26T05:13:59.838Z,9.20
2022-10-26T05:16:27.914Z,9.20
2022-10-26T05:18:56.115Z,9.20
2022-10-26T05:21:24.282Z,9.20
2022-10-26T05:23:55.511Z,9.20
2022-10-26T05:26:24.542Z,9.20
2022-10-26T05:28:53.500Z,9.20
2022-10-26T05:31:22.019Z,9.10
2022-10-26T05:33:50.987Z,9.10
2022-10-26T05:36:19.136Z,9.10
2022-10-26T05:38:47.417Z,9.00
2022-10-26T05:41:16.947Z,9.00
2022-10-26T05:43:45.050Z,9.00
2022-10-26T05:46:13.190Z,9.00
2022-10-26T05:48:41.384Z,9.00
2022-10-26T05:51:10.681Z,9.00
2022-10-26T05:53:38.766Z,9.00
2022-10-26T05:56:21.222Z,9.10
2022-10-26T05:58:50.353Z,9.10
2022-10-26T06:01:32.311Z,9.00
2022-10-26T06:04:12.777Z,9.10
2022-10-26T06:06:45.269Z,9.10
2022-10-26T06:09:14.729Z,9.00
2022-10-26T06:11:44.767Z,9.00
2022-10-26T06:14:13.606Z,9.10
2022-10-26T06:17:03.492Z,9.00
2022-10-26T06:19:41.105Z,9.10
2022-10-26T06:22:23.094Z,9.10
2022-10-26T06:25:01.893Z,9.10
2022-10-26T06:27:41.210Z,9.00
2022-10-26T06:30:12.012Z,9.00
2022-10-26T06:32:41.502Z,9.00
2022-10-26T06:35:21.770Z,9.00
2022-10-26T06:37:51.655Z,9.00
2022-10-26T06:40:20.721Z,9.00
2022-10-26T06:42:51.215Z,9.00
2022-10-26T06:45:20.151Z,9.00
2022-10-26T06:47:56.590Z,9.00
2022-10-26T06:50:34.271Z,9.00
2022-10-26T06:53:11.370Z,9.00
2022-10-26T06:55:43.986Z,9.00
2022-10-26T06:58:17.781Z,9.00
2022-10-26T07:00:47.717Z,9.00
2022-10-26T07:03:15.872Z,9.00
2022-10-26T07:05:45.220Z,9.00
2022-10-26T07:08:13.795Z,9.00
2022-10-26T07:10:42.829Z,9.00
2022-10-26T07:13:11.962Z,9.00
2022-10-26T07:15:42.933Z,9.00
2022-10-26T07:18:11.553Z,9.00
2022-10-26T07:20:41.522Z,8.90
2022-10-26T07:23:12.060Z,8.90
2022-10-26T07:25:41.187Z,8.90
2022-10-26T07:28:10.633Z,8.90
2022-10-26T07:30:39.933Z,9.00
2022-10-26T07:33:12.066Z,9.00
2022-10-26T07:35:40.823Z,8.90
2022-10-26T07:38:09.353Z,8.90
2022-10-26T07:40:37.930Z,8.90
2022-10-26T07:43:06.262Z,8.90
2022-10-26T07:45:34.424Z,9.00
2022-10-26T07:48:02.979Z,8.90
2022-10-26T07:50:32.441Z,9.00
2022-10-26T07:53:00.855Z,9.00
2022-10-26T07:55:29.117Z,9.00
2022-10-26T07:57:57.725Z,9.00
2022-10-26T08:00:26.362Z,9.00
2022-10-26T08:02:55.158Z,9.00
2022-10-26T08:05:23.312Z,9.00
2022-10-26T08:07:53.083Z,9.00
2022-10-26T08:10:21.427Z,9.10
2022-10-26T08:12:49.517Z,9.00
2022-10-26T08:15:17.849Z,9.00
2022-10-26T08:17:46.038Z,9.00
2022-10-26T08:20:14.134Z,9.10
2022-10-26T08:22:42.315Z,9.10
2022-10-26T08:25:12.069Z,9.10
2022-10-26T08:27:40.161Z,9.10
2022-10-26T08:30:09.149Z,9.10
2022-10-26T08:32:37.370Z,9.10
2022-10-26T08:35:05.843Z,9.00
2022-10-26T08:37:33.899Z,9.00
2022-10-26T08:40:03.030Z,9.10
2022-10-26T08:42:38.597Z,9.10
2022-10-26T08:45:12.958Z,9.10
2022-10-26T08:47:48.105Z,9.10
2022-10-26T08:50:31.824Z,9.10
2022-10-26T08:53:04.938Z,9.10
2022-10-26T08:55:41.407Z,9.10
2022-10-26T08:58:16.321Z,9.20
2022-10-26T09:00:46.395Z,9.20
2022-10-26T09:03:16.136Z,9.20
2022-10-26T09:06:00.908Z,9.30
2022-10-26T09:08:36.826Z,9.30
2022-10-26T09:11:16.382Z,9.30
2022-10-26T09:14:00.533Z,9.40
2022-10-26T09:16:36.078Z,9.40
2022-10-26T09:19:23.583Z,9.40
2022-10-26T09:21:59.478Z,9.40
2022-10-26T09:24:32.526Z,9.40
2022-10-26T09:27:07.698Z,9.40
2022-10-26T09:29:42.241Z,9.50
2022-10-26T09:32:19.018Z,9.50
2022-10-26T09:34:51.552Z,9.60
2022-10-26T09:37:24.591Z,9.70
2022-10-26T09:40:00.230Z,9.70
2022-10-26T09:42:36.637Z,9.70
2022-10-26T09:45:14.502Z,9.80
2022-10-26T09:47:47.873Z,9.80
2022-10-26T09:50:23.437Z,9.80
2022-10-26T09:52:51.961Z,9.70
2022-10-26T09:55:22.609Z,9.60
2022-10-26T09:57:53.992Z,9.60
2022-10-26T10:00:26.273Z,9.50
2022-10-26T10:02:56.353Z,9.50
2022-10-26T10:05:49.729Z,9.50
2022-10-26T10:08:18.630Z,9.50
2022-10-26T10:10:58.574Z,9.40
2022-10-26T10:13:29.769Z,9.50
2022-10-26T10:16:07.369Z,9.50
2022-10-26T10:18:36.953Z,9.50
2022-10-26T10:21:06.395Z,9.50
2022-10-26T10:23:36.043Z,9.50
2022-10-26T10:26:07.745Z,9.40
2022-10-26T10:28:37.221Z,9.40
2022-10-26T10:31:20.051Z,9.40
2022-10-26T10:33:49.341Z,9.50
2022-10-26T10:36:20.981Z,9.50
2022-10-26T10:38:51.164Z,9.50
2022-10-26T10:41:23.101Z,9.50
2022-10-26T10:43:54.318Z,9.40
2022-10-26T10:46:26.527Z,9.40
2022-10-26T10:49:03.216Z,9.50
2022-10-26T10:51:37.522Z,9.40
2022-10-26T10:54:07.221Z,9.30
2022-10-26T10:56:41.560Z,9.30
2022-10-26T10:59:29.551Z,9.40
2022-10-26T11:02:24.995Z,9.40
2022-10-26T11:05:05.729Z,9.40
2022-10-26T11:07:41.416Z,9.50
2022-10-26T11:10:14.590Z,9.50
2022-10-26T11:12:48.457Z,9.50
2022-10-26T11:15:21.722Z,9.60
2022-10-26T11:17:58.491Z,9.60
2022-10-26T11:20:29.927Z,9.60
2022-10-26T11:25:44.994Z,9.70
2022-10-26T11:28:17.908Z,9.70
2022-10-26T11:30:51.923Z,9.70
2022-10-26T11:33:26.515Z,9.70
2022-10-26T11:35:59.410Z,9.70
2022-10-26T11:38:46.197Z,9.70
2022-10-26T11:41:26.268Z,9.70
2022-10-26T11:44:02.515Z,9.70
2022-10-26T11:46:35.630Z,9.80
2022-10-26T11:49:12.372Z,9.80
2022-10-26T11:51:45.064Z,9.80
2022-10-26T11:54:18.314Z,9.80
2022-10-26T11:56:49.361Z,9.80
2022-10-26T11:59:22.050Z,9.90
2022-10-26T12:01:52.332Z,9.90
2022-10-26T12:04:24.845Z,9.90
2022-10-26T12:06:55.872Z,10.00
2022-10-26T12:09:33.472Z,9.90
2022-10-26T12:12:09.746Z,9.90
2022-10-26T12:14:43.766Z,9.90
2022-10-26T12:17:16.698Z,9.90
2022-10-26T12:19:50.518Z,9.90
2022-10-26T12:22:20.250Z,9.90
2022-10-26T12:25:07.445Z,9.90
2022-10-26T12:27:52.425Z,10.00
2022-10-26T12:30:32.541Z,10.00
2022-10-26T12:33:01.982Z,10.00
2022-10-26T12:35:36.766Z,9.90
2022-10-26T12:38:51.411Z,9.90
2022-10-26T12:41:26.257Z,9.80
2022-10-26T12:44:07.658Z,9.90
2022-10-26T12:46:42.165Z,9.80
2022-10-26T12:50:00.857Z,9.90
2022-10-26T12:52:39.452Z,9.80
2022-10-26T12:56:01.983Z,9.80
2022-10-26T12:59:00.039Z,9.80
2022-10-26T13:01:58.439Z,9.80
2022-10-26T13:05:07.340Z,9.70
2022-10-26T13:07:39.183Z,9.60
2022-10-26T13:10:18.637Z,9.60
2022-10-26T13:12:53.198Z,9.60
2022-10-26T13:15:26.013Z,9.50
2022-10-26T13:18:02.248Z,9.50
2022-10-26T13:20:32.846Z,9.50
2022-10-26T13:25:32.197Z,9.50
2022-10-26T13:28:06.815Z,9.50
2022-10-26T13:30:47.178Z,9.50
2022-10-26T13:33:34.011Z,9.50
2022-10-26T13:36:07.614Z,9.60
2022-10-26T13:38:37.721Z,9.50
2022-10-26T13:41:18.184Z,9.50
2022-10-26T13:43:48.194Z,9.50
2022-10-26T13:46:27.899Z,9.50
2022-10-26T13:49:06.030Z,9.50
2022-10-26T13:51:42.122Z,9.50
2022-10-26T13:54:21.021Z,9.50
2022-10-26T13:57:03.072Z,9.50
2022-10-26T13:59:34.414Z,9.50
2022-10-26T14:02:17.917Z,9.50
2022-10-26T14:04:52.625Z,9.50
2022-10-26T14:07:23.964Z,9.50
2022-10-26T14:09:57.214Z,9.50
2022-10-26T14:12:28.443Z,9.50
2022-10-26T14:15:02.821Z,9.50
2022-10-26T14:17:32.576Z,9.50
2022-10-26T14:20:01.145Z,9.50
2022-10-26T14:22:31.293Z,9.50
2022-10-26T14:25:00.881Z,9.50
2022-10-26T14:27:33.953Z,9.50
2022-10-26T14:30:22.212Z,9.50
2022-10-26T14:32:53.216Z,9.50
2022-10-26T14:35:24.513Z,9.50
2022-10-26T14:37:55.335Z,9.50
2022-10-26T14:40:28.518Z,9.50
2022-10-26T14:42:59.514Z,9.50
2022-10-26T14:45:48.014Z,9.50
2022-10-26T14:48:26.105Z,9.50
2022-10-26T14:51:06.660Z,9.50
2022-10-26T14:53:39.055Z,9.50
2022-10-26T14:56:19.323Z,9.50
2022-10-26T14:58:47.747Z,9.50
2022-10-26T15:01:28.333Z,9.50
2022-10-26T15:04:03.095Z,9.50
2022-10-26T15:06:45.203Z,9.50
2022-10-26T15:09:30.530Z,9.50
2022-10-26T15:11:58.710Z,9.50
2022-10-26T15:14:27.122Z,9.50
2022-10-26T15:16:57.657Z,9.40
2022-10-26T15:19:28.789Z,9.40
2022-10-26T15:21:57.125Z,9.40
2022-10-26T15:24:36.047Z,9.40
2022-10-26T15:27:14.669Z,9.40
2022-10-26T15:29:45.041Z,9.40
2022-10-26T15:32:31.760Z,9.40
2022-10-26T15:35:26.466Z,9.40
2022-10-26T15:37:56.313Z,9.40
2022-10-26T15:43:01.751Z,9.40
2022-10-26T15:45:33.091Z,9.40
2022-10-26T15:48:17.904Z,9.40
2022-10-26T15:50:47.715Z,9.40
2022-10-26T15:53:20.731Z,9.30
2022-10-26T15:55:49.649Z,9.30
2022-10-26T15:58:18.138Z,9.40
2022-10-26T16:00:46.390Z,9.30
2022-10-26T16:03:23.785Z,9.40
2022-10-26T16:05:57.663Z,9.30
2022-10-26T16:08:28.060Z,9.30
2022-10-26T16:10:56.479Z,9.30
2022-10-26T16:13:24.813Z,9.30
2022-10-26T16:15:52.893Z,9.30
2022-10-26T16:18:21.104Z,9.30
2022-10-26T16:20:49.721Z,9.30
2022-10-26T16:23:19.163Z,9.30
2022-10-26T16:25:48.441Z,9.30
2022-10-26T16:28:18.204Z,9.30
2022-10-26T16:30:46.385Z,9.30
2022-10-26T16:33:14.664Z,9.30
2022-10-26T16:35:42.992Z,9.30
2022-10-26T16:38:11.081Z,9.30
2022-10-26T16:40:42.663Z,9.30
2022-10-26T16:43:11.703Z,9.30
2022-10-26T16:45:42.269Z,9.20
2022-10-26T16:48:15.237Z,9.20
2022-10-26T16:50:43.528Z,9.20
2022-10-26T16:53:11.663Z,9.20
2022-10-26T16:58:14.503Z,9.20
2022-10-26T17:00:42.803Z,9.20
2022-10-26T17:03:10.918Z,9.20
2022-10-26T17:05:39.094Z,9.20
2022-10-26T17:08:08.812Z,9.20
2022-10-26T17:10:36.975Z,9.20
2022-10-26T17:13:06.630Z,9.20
2022-10-26T17:15:35.257Z,9.20
2022-10-26T17:18:03.330Z,9.20
2022-10-26T17:20:31.474Z,9.20
2022-10-26T17:22:59.931Z,9.20
2022-10-26T17:25:27.992Z,9.20
2022-10-26T17:27:56.720Z,9.20
2022-10-26T17:30:27.217Z,9.20
2022-10-26T17:32:55.861Z,9.20
2022-10-26T17:35:24.145Z,9.20
2022-10-26T17:37:52.970Z,9.20
2022-10-26T17:40:21.507Z,9.20
2022-10-26T17:42:49.622Z,9.20
2022-10-26T17:45:18.201Z,9.20
2022-10-26T17:47:48.059Z,9.20
2022-10-26T17:50:16.518Z,9.20
2022-10-26T17:52:44.927Z,9.20
2022-10-26T17:55:13.037Z,9.20
2022-10-26T17:57:41.186Z,9.20
2022-10-26T18:00:10.729Z,9.20
2022-10-26T18:02:40.160Z,9.20
2022-10-26T18:05:10.955Z,9.20
2022-10-26T18:07:39.189Z,9.20
2022-10-26T18:10:13.964Z,9.20
2022-10-26T18:12:48.561Z,9.20
2022-10-26T18:15:17.057Z,9.20
2022-10-26T18:17:45.199Z,9.30
2022-10-26T18:20:15.015Z,9.30
2022-10-26T18:22:43.577Z,9.20
2022-10-26T18:25:11.636Z,9.30
2022-10-26T18:27:39.865Z,9.20
2022-10-26T18:30:09.584Z,9.20
2022-10-26T18:32:37.833Z,9.20
2022-10-26T18:35:07.012Z,9.20
2022-10-26T18:37:36.445Z,9.20
2022-10-26T18:40:04.979Z,9.20
2022-10-26T18:42:33.225Z,9.20
2022-10-26T18:45:03.379Z,9.20
2022-10-26T18:47:32.029Z,9.20
2022-10-26T18:50:00.714Z,9.20
2022-10-26T18:52:29.951Z,9.10
2022-10-26T18:54:59.679Z,9.10
2022-10-26T18:57:29.028Z,9.10
2022-10-26T18:59:57.150Z,9.10
2022-10-26T19:02:25.273Z,9.10
2022-10-26T19:04:54.251Z,9.00
2022-10-26T19:07:22.489Z,9.00
2022-10-26T19:09:50.656Z,9.00
2022-10-26T19:12:20.163Z,9.00
2022-10-26T19:14:48.314Z,9.00
2022-10-26T19:17:16.590Z,9.00
2022-10-26T19:19:44.796Z,9.00
2022-10-26T19:22:13.011Z,9.00
2022-10-26T19:24:44.971Z,9.00
2022-10-26T19:27:13.192Z,9.00
2022-10-26T19:29:42.811Z,9.00
2022-10-26T19:32:12.356Z,9.00
2022-10-26T19:34:40.518Z,9.00
2022-10-26T19:37:09.507Z,9.00
2022-10-26T19:39:37.696Z,9.00
2022-10-26T19:42:06.297Z,9.00
2022-10-26T19:44:34.521Z,9.00
2022-10-26T19:47:05.185Z,9.00
2022-10-26T19:49:33.436Z,9.00
2022-10-26T19:52:02.636Z,9.00
2022-10-26T19:54:30.733Z,9.00
2022-10-26T19:56:59.109Z,9.00
2022-10-26T19:59:27.470Z,9.00
2022-10-26T20:01:57.686Z,9.00
2022-10-26T20:04:27.445Z,9.00
2022-10-26T20:06:55.668Z,9.00
2022-10-26T20:09:23.798Z,9.00
2022-10-26T20:11:51.953Z,9.00
2022-10-26T20:14:20.019Z,9.00
2022-10-26T20:16:48.353Z,9.00
2022-10-26T20:19:16.702Z,9.00
2022-10-26T20:21:47.413Z,9.00
2022-10-26T20:24:15.965Z,9.00
2022-10-26T20:26:44.115Z,9.00
2022-10-26T20:29:12.231Z,9.00
2022-10-26T20:31:40.367Z,9.00
2022-10-26T20:34:08.585Z,9.00
2022-10-26T20:36:36.670Z,9.00
2022-10-26T20:39:07.225Z,9.00
2022-10-26T20:41:41.763Z,9.00
2022-10-26T20:44:19.659Z,9.10
2022-10-26T20:46:48.413Z,9.10
2022-10-26T20:49:16.857Z,9.10
2022-10-26T20:52:15.253Z,9.10
2022-10-26T20:54:44.053Z,9.10
2022-10-26T20:57:18.904Z,9.10
2022-10-26T20:59:50.275Z,9.20
2022-10-26T21:02:18.515Z,9.20
2022-10-26T21:04:46.649Z,9.20
2022-10-26T21:07:15.040Z,9.20
2022-10-26T21:09:44.670Z,9.20
2022-10-26T21:12:12.741Z,9.20
2022-10-26T21:14:41.178Z,9.20
2022-10-26T21:17:09.606Z,9.20
2022-10-26T21:19:38.197Z,9.20
2022-10-26T21:22:06.609Z,9.20
2022-10-26T21:24:37.688Z,9.20
2022-10-26T21:27:07.428Z,9.20
2022-10-26T21:29:35.519Z,9.20
2022-10-26T21:32:03.596Z,9.20
2022-10-26T21:34:32.029Z,9.20
2022-10-26T21:37:00.104Z,9.20
2022-10-26T21:39:28.161Z,9.20
2022-10-26T21:41:56.393Z,9.20
2022-10-26T21:44:40.316Z,9.30
2022-10-26T21:47:09.500Z,9.30
2022-10-26T21:49:37.923Z,9.30
2022-10-26T21:52:08.170Z,9.40
2022-10-26T21:54:36.442Z,9.40
2022-10-26T21:57:04.634Z,9.40
2022-10-26T21:59:34.122Z,9.40
2022-10-26T22:02:02.543Z,9.40
2022-10-26T22:04:30.888Z,9.40
2022-10-26T22:06:58.981Z,9.40
2022-10-26T22:09:27.728Z,9.40
2022-10-26T22:11:55.814Z,9.40
2022-10-26T22:14:24.007Z,9.40
2022-10-26T22:16:53.759Z,9.40
2022-10-26T22:19:21.871Z,9.40
2022-10-26T22:21:50.031Z,9.40
2022-10-26T22:24:18.435Z,9.40
2022-10-26T22:26:46.560Z,9.40
2022-10-26T22:29:14.643Z,9.40
2022-10-26T22:31:42.881Z,9.40
2022-10-26T22:34:16.643Z,9.40
2022-10-26T22:36:45.646Z,9.40
2022-10-26T22:39:13.759Z,9.40
2022-10-26T22:41:41.879Z,9.30
2022-10-26T22:44:10.371Z,9.30
2022-10-26T22:46:38.494Z,9.30
2022-10-26T22:49:06.678Z,9.30
2022-10-26T22:51:36.732Z,9.30
2022-10-26T22:54:05.926Z,9.30
2022-10-26T22:56:36.016Z,9.30
2022-10-26T22:59:04.900Z,9.30
2022-10-26T23:01:37.446Z,9.30
2022-10-26T23:04:06.383Z,9.30
2022-10-26T23:06:35.874Z,9.30
2022-10-26T23:09:03.981Z,9.30
2022-10-26T23:11:32.441Z,9.40
2022-10-26T23:14:02.083Z,9.40
2022-10-26T23:16:31.310Z,9.40
2022-10-26T23:19:00.971Z,9.40
2022-10-26T23:21:29.995Z,9.40
2022-10-26T23:23:59.977Z,9.40
2022-10-26T23:26:28.297Z,9.40
2022-10-26T23:28:56.390Z,9.40
2022-10-26T23:31:26.208Z,9.50
2022-10-26T23:33:55.985Z,9.50
2022-10-26T23:36:24.703Z,9.50
2022-10-26T23:38:53.050Z,9.50
2022-10-26T23:41:22.688Z,9.50
2022-10-26T23:43:50.841Z,9.50
2022-10-26T23:46:18.956Z,9.60
2022-10-26T23:48:47.277Z,9.60
2022-10-26T23:51:15.335Z,9.60
2022-10-26T23:53:43.389Z,9.60
2022-10-26T23:56:11.689Z,9.70
2022-10-26T23:58:41.166Z,9.70
